Time;durP1;ratioP1;P1;durP2;ratioP2;P2;SDS_P1;SDS_P2;PMS_P1;PMS_P2;Temp;Humidity;BMP_temperature;BMP_pressure;BME280_temperature;BME280_humidity;BME280_pressure;Samples;Min_cycle;Max_cycle;Signal;HPM_P1;HPM_P2
2022/05/17 00:00:51;;;;;;;3.55;1.98;;;23.20;99.90;;;;;;4193609;28;20281;-75
2022/05/17 00:02:53;;;;;;;3.58;2.05;;;23.20;99.90;;;;;;4194084;28;20223;-75
2022/05/17 00:04:56;;;;;;;5.30;2.20;;;23.30;99.90;;;;;;4194323;28;20288;-75
2022/05/17 00:06:58;;;;;;;6.70;2.05;;;23.20;99.90;;;;;;4193721;28;20997;-75
2022/05/17 00:09:00;;;;;;;4.78;1.92;;;23.20;99.90;;;;;;4191817;28;20265;-75
2022/05/17 00:11:03;;;;;;;4.57;2.20;;;23.20;99.90;;;;;;4194279;28;20272;-75
2022/05/17 00:13:07;;;;;;;5.22;2.13;;;23.20;99.90;;;;;;4194441;28;20272;-75
2022/05/17 00:15:10;;;;;;;3.28;1.90;;;23.20;99.90;;;;;;4188761;28;20218;-75
2022/05/17 00:17:12;;;;;;;3.70;2.00;;;23.20;99.90;;;;;;4192403;28;20574;-75
2022/05/17 00:19:18;;;;;;;4.20;2.00;;;23.20;99.90;;;;;;4193927;28;20219;-75
2022/05/17 00:21:20;;;;;;;7.28;2.45;;;23.20;99.90;;;;;;4192581;28;20637;-75
2022/05/17 00:23:22;;;;;;;3.90;2.22;;;23.20;99.90;;;;;;4193796;28;20655;-75
2022/05/17 00:25:25;;;;;;;5.45;1.98;;;23.20;99.90;;;;;;4193546;28;20223;-75
2022/05/17 00:27:27;;;;;;;3.28;2.10;;;23.20;99.90;;;;;;4193286;28;20648;-75
2022/05/17 00:29:31;;;;;;;3.83;2.13;;;23.20;99.90;;;;;;4194150;28;20265;-75
2022/05/17 00:31:34;;;;;;;4.85;2.10;;;23.20;99.90;;;;;;4193632;28;20284;-75
2022/05/17 00:33:37;;;;;;;5.93;2.13;;;23.20;99.90;;;;;;4193867;28;20227;-75
2022/05/17 00:35:39;;;;;;;4.90;2.22;;;23.20;99.90;;;;;;4193819;28;20219;-75
2022/05/17 00:37:41;;;;;;;4.90;2.13;;;23.20;99.90;;;;;;4193541;28;20223;-75
2022/05/17 00:39:44;;;;;;;5.90;2.25;;;23.20;99.90;;;;;;4194154;28;20223;-75
2022/05/17 00:41:46;;;;;;;3.33;1.90;;;23.20;99.90;;;;;;4193277;28;20269;-75
2022/05/17 00:46:10;;;;;;;5.90;2.42;;;23.20;99.90;;;;;;4194112;28;20211;-75
2022/05/17 00:48:14;;;;;;;5.03;2.25;;;23.20;99.90;;;;;;4193645;28;20265;-75
2022/05/17 00:50:27;;;;;;;3.05;2.10;;;23.20;99.90;;;;;;4193588;28;20219;-75
2022/05/17 00:52:32;;;;;;;3.72;2.10;;;23.20;99.90;;;;;;4193870;28;20312;-75
2022/05/17 00:54:36;;;;;;;5.00;2.15;;;23.20;99.90;;;;;;4193245;28;20745;-75
2022/05/17 00:56:42;;;;;;;6.80;2.17;;;23.20;99.90;;;;;;4193772;28;20223;-75
2022/05/17 00:58:50;;;;;;;3.40;2.30;;;23.20;99.90;;;;;;4193747;28;20231;-75
2022/05/17 01:01:02;;;;;;;4.22;2.50;;;23.20;99.90;;;;;;4193556;28;20234;-75
2022/05/17 01:03:09;;;;;;;4.82;2.08;;;23.20;99.90;;;;;;4191699;28;20223;-75
2022/05/17 01:05:11;;;;;;;4.65;2.30;;;23.20;99.90;;;;;;4192373;28;20231;-75
2022/05/17 01:07:17;;;;;;;3.60;1.90;;;23.20;99.90;;;;;;4192915;28;20703;-75
2022/05/17 01:09:22;;;;;;;5.28;2.30;;;23.20;99.90;;;;;;4193302;28;20679;-75
2022/05/17 01:11:24;;;;;;;4.25;2.25;;;23.20;99.90;;;;;;4193050;28;20210;-75
2022/05/17 01:15:47;;;;;;;3.97;2.30;;;23.20;99.90;;;;;;4192587;28;20609;-75
2022/05/17 01:17:50;;;;;;;4.22;2.13;;;23.20;99.90;;;;;;4193142;28;20210;-75
2022/05/17 01:19:54;;;;;;;5.05;2.00;;;23.20;99.90;;;;;;4193450;28;20223;-75
2022/05/17 01:21:58;;;;;;;4.72;2.03;;;23.20;99.90;;;;;;4193241;28;20266;-75
2022/05/17 01:24:00;;;;;;;5.18;2.28;;;23.20;99.90;;;;;;4191937;28;20219;-75
2022/05/17 01:26:03;;;;;;;3.30;1.67;;;23.20;99.90;;;;;;4193163;28;20997;-75
2022/05/17 01:28:12;;;;;;;5.18;2.20;;;23.20;99.90;;;;;;4192862;28;20227;-75
2022/05/17 01:30:17;;;;;;;3.88;1.85;;;23.10;99.90;;;;;;4193967;28;20223;-75
2022/05/17 01:32:20;;;;;;;3.38;1.80;;;23.10;99.90;;;;;;4192780;28;20215;-75
2022/05/17 01:34:22;;;;;;;4.50;1.83;;;23.10;99.90;;;;;;4192892;28;20215;-75
2022/05/17 01:36:24;;;;;;;4.35;1.90;;;23.20;99.90;;;;;;4192264;28;20281;-75
2022/05/17 01:38:29;;;;;;;5.43;2.10;;;23.10;99.90;;;;;;4192735;28;20603;-74
2022/05/17 01:40:32;;;;;;;3.50;2.22;;;23.20;99.90;;;;;;4193144;28;20231;-75
2022/05/17 01:42:34;;;;;;;3.67;2.10;;;23.10;99.90;;;;;;4193028;28;20235;-75
2022/05/17 01:44:36;;;;;;;8.27;2.10;;;23.10;99.90;;;;;;4193175;28;20214;-75
2022/05/17 01:46:39;;;;;;;5.25;2.40;;;23.10;99.90;;;;;;4191894;28;20211;-75
2022/05/17 01:48:41;;;;;;;3.45;1.90;;;23.10;99.90;;;;;;4193226;28;20223;-75
2022/05/17 01:50:44;;;;;;;2.42;1.50;;;23.10;99.90;;;;;;4192595;28;20270;-75
2022/05/17 01:52:46;;;;;;;3.47;2.05;;;23.10;99.90;;;;;;4192438;28;20246;-75
2022/05/17 01:54:50;;;;;;;4.70;1.85;;;23.10;99.90;;;;;;4192728;28;20215;-74
2022/05/17 01:56:52;;;;;;;4.32;2.05;;;23.10;99.90;;;;;;4193026;28;20671;-75
2022/05/17 01:58:54;;;;;;;4.13;1.85;;;23.10;99.90;;;;;;4192467;28;20360;-74
2022/05/17 02:00:57;;;;;;;4.38;2.10;;;23.10;99.90;;;;;;4191203;28;20219;-75
2022/05/17 02:02:59;;;;;;;3.92;2.05;;;23.10;99.90;;;;;;4187932;28;20273;-75
2022/05/17 02:05:01;;;;;;;3.15;1.83;;;23.10;99.90;;;;;;4191633;28;20315;-75
2022/05/17 02:07:04;;;;;;;5.68;2.25;;;23.10;99.90;;;;;;4192350;28;20280;-75
2022/05/17 02:09:07;;;;;;;4.55;1.67;;;23.10;99.90;;;;;;4192876;28;20227;-75
2022/05/17 02:11:10;;;;;;;4.13;1.98;;;23.10;99.90;;;;;;4192849;28;20265;-75
2022/05/17 02:13:13;;;;;;;3.50;1.58;;;23.10;99.90;;;;;;4192647;28;20244;-75
2022/05/17 02:15:15;;;;;;;4.05;2.28;;;23.10;99.90;;;;;;4192700;28;20265;-75
2022/05/17 02:17:18;;;;;;;4.68;1.88;;;23.10;99.90;;;;;;4192618;28;20227;-75
2022/05/17 02:19:20;;;;;;;3.80;1.98;;;23.10;99.90;;;;;;4192469;28;20648;-75
2022/05/17 02:21:22;;;;;;;2.90;1.67;;;23.10;99.90;;;;;;4190707;28;20243;-75
2022/05/17 02:23:25;;;;;;;5.65;1.88;;;23.00;99.90;;;;;;4192206;28;20641;-75
2022/05/17 02:25:27;;;;;;;3.72;1.92;;;23.00;99.90;;;;;;4192010;28;20215;-75
2022/05/17 02:27:32;;;;;;;4.18;2.13;;;23.00;99.90;;;;;;4191848;28;20227;-75
2022/05/17 02:29:34;;;;;;;3.50;1.95;;;23.10;99.90;;;;;;4191585;28;20253;-75
2022/05/17 02:31:37;;;;;;;4.28;2.00;;;23.00;99.90;;;;;;4191593;28;21654;-75
2022/05/17 02:33:39;;;;;;;3.42;1.80;;;23.10;99.90;;;;;;4191268;28;20295;-75
2022/05/17 02:35:43;;;;;;;4.28;1.77;;;23.10;99.90;;;;;;4191822;28;20257;-74
2022/05/17 02:37:45;;;;;;;2.75;1.30;;;23.10;99.90;;;;;;4192157;28;20249;-75
2022/05/17 02:39:47;;;;;;;3.60;1.85;;;23.00;99.90;;;;;;4192139;28;20215;-75
2022/05/17 02:41:50;;;;;;;3.47;1.83;;;23.10;99.90;;;;;;4192324;28;20235;-75
2022/05/17 02:43:54;;;;;;;2.38;1.50;;;23.00;99.90;;;;;;4191859;28;20219;-75
2022/05/17 02:45:56;;;;;;;3.47;1.70;;;23.10;99.90;;;;;;4191970;28;20227;-75
2022/05/17 02:47:59;;;;;;;2.88;1.73;;;23.10;99.90;;;;;;4191973;28;20547;-74
2022/05/17 02:50:01;;;;;;;3.38;1.98;;;23.00;99.90;;;;;;4191541;28;20229;-75
2022/05/17 02:52:04;;;;;;;5.40;2.03;;;23.00;99.90;;;;;;4192279;28;20668;-75
2022/05/17 02:54:10;;;;;;;4.03;1.80;;;23.10;99.90;;;;;;4191252;28;20268;-75
2022/05/17 02:56:12;;;;;;;4.45;2.00;;;23.10;99.90;;;;;;4191006;28;20246;-75
2022/05/17 02:58:15;;;;;;;4.15;1.55;;;23.10;99.90;;;;;;4190448;28;20633;-74
2022/05/17 03:00:19;;;;;;;3.50;1.70;;;23.10;99.90;;;;;;4190434;28;20648;-75
2022/05/17 03:02:21;;;;;;;2.63;1.48;;;23.10;99.90;;;;;;4187247;28;20239;-75
2022/05/17 03:04:26;;;;;;;3.60;1.85;;;23.00;99.90;;;;;;4190478;28;20224;-74
2022/05/17 03:06:28;;;;;;;3.85;1.77;;;23.10;99.90;;;;;;4190513;28;20302;-75
2022/05/17 03:08:30;;;;;;;3.53;1.73;;;23.00;99.90;;;;;;4191327;28;20226;-75
2022/05/17 03:10:32;;;;;;;1.95;1.48;;;23.00;99.90;;;;;;4190595;28;20235;-74
2022/05/17 03:12:35;;;;;;;4.07;1.80;;;23.10;99.90;;;;;;4191254;28;20698;-74
2022/05/17 03:14:37;;;;;;;3.65;1.90;;;23.00;99.90;;;;;;4190121;28;20211;-74
2022/05/17 03:16:41;;;;;;;3.97;1.88;;;23.00;99.90;;;;;;4190827;28;20211;-75
2022/05/17 03:18:44;;;;;;;3.88;1.90;;;23.00;99.90;;;;;;4191085;28;20215;-74
2022/05/17 03:20:49;;;;;;;3.63;1.95;;;23.00;99.90;;;;;;4190593;28;20219;-75
2022/05/17 03:22:51;;;;;;;2.13;1.50;;;23.00;99.90;;;;;;4191202;28;20279;-74
2022/05/17 03:24:53;;;;;;;4.13;1.60;;;23.00;99.90;;;;;;4190467;28;20269;-75
2022/05/17 03:26:56;;;;;;;3.17;1.70;;;23.00;99.90;;;;;;4191134;28;20254;-75
2022/05/17 03:28:58;;;;;;;2.80;1.55;;;23.00;99.90;;;;;;4197244;28;20264;-75
2022/05/17 03:31:01;;;;;;;2.97;1.70;;;23.00;99.90;;;;;;4196506;28;20264;-74
2022/05/17 03:33:05;;;;;;;3.33;2.08;;;23.00;99.90;;;;;;4196537;28;20276;-74
2022/05/17 03:35:09;;;;;;;3.53;1.70;;;23.00;99.90;;;;;;4195574;28;20218;-74
2022/05/17 03:37:12;;;;;;;3.92;1.90;;;23.00;99.90;;;;;;4196749;28;20269;-75
2022/05/17 03:39:15;;;;;;;4.30;1.90;;;23.00;99.90;;;;;;4196518;28;20274;-75
2022/05/17 03:41:17;;;;;;;2.10;1.42;;;23.00;99.90;;;;;;4195985;28;20226;-75
2022/05/17 03:43:20;;;;;;;3.22;1.67;;;23.00;99.90;;;;;;4196666;28;20239;-74
2022/05/17 03:45:22;;;;;;;2.63;1.65;;;23.00;99.90;;;;;;4195875;28;20248;-75
2022/05/17 03:47:25;;;;;;;2.65;1.40;;;23.00;99.90;;;;;;4196270;28;20218;-74
2022/05/17 03:49:29;;;;;;;3.38;1.80;;;22.90;99.90;;;;;;4196588;28;20281;-74
2022/05/17 03:51:31;;;;;;;3.65;1.42;;;23.00;99.90;;;;;;4190976;28;20219;-74
2022/05/17 03:53:34;;;;;;;3.13;1.77;;;23.00;99.90;;;;;;4196323;28;20211;-74
2022/05/17 03:55:36;;;;;;;2.47;1.60;;;23.00;99.90;;;;;;4196002;28;20223;-74
2022/05/17 03:57:38;;;;;;;4.00;1.70;;;23.00;99.90;;;;;;4196453;28;20260;-75
2022/05/17 03:59:40;;;;;;;4.93;1.83;;;23.00;99.90;;;;;;4197202;28;20211;-75
2022/05/17 04:01:44;;;;;;;2.72;1.63;;;23.00;99.90;;;;;;4196145;28;20227;-74
2022/05/17 04:03:46;;;;;;;4.60;1.75;;;23.00;99.90;;;;;;4195865;28;20230;-75
2022/05/17 04:05:50;;;;;;;3.53;1.60;;;23.00;99.90;;;;;;4196467;28;20760;-74
2022/05/17 04:07:52;;;;;;;3.97;1.80;;;23.00;99.90;;;;;;4195999;28;20288;-74
2022/05/17 04:09:55;;;;;;;3.10;1.50;;;22.90;99.90;;;;;;4197286;28;20559;-74
2022/05/17 04:11:57;;;;;;;4.07;1.65;;;23.00;99.90;;;;;;4195748;28;20226;-74
2022/05/17 04:14:00;;;;;;;3.03;1.60;;;23.00;99.90;;;;;;4196240;28;20215;-74
2022/05/17 04:16:04;;;;;;;4.75;2.05;;;22.90;99.90;;;;;;4178598;28;20207;-74
2022/05/17 04:18:07;;;;;;;3.95;1.67;;;22.90;99.90;;;;;;4196647;28;20231;-74
2022/05/17 04:20:12;;;;;;;2.53;1.50;;;23.00;99.90;;;;;;4196787;28;20659;-74
2022/05/17 04:22:16;;;;;;;3.00;1.98;;;22.90;99.90;;;;;;4196525;28;20612;-74
2022/05/17 04:24:18;;;;;;;3.22;1.60;;;23.00;99.90;;;;;;4197222;28;20276;-74
2022/05/17 04:26:20;;;;;;;2.78;1.50;;;22.90;99.90;;;;;;4196813;28;20219;-74
2022/05/17 04:28:23;;;;;;;3.85;1.75;;;23.00;99.90;;;;;;4195590;28;20284;-75
2022/05/17 04:30:25;;;;;;;3.25;1.60;;;22.90;99.90;;;;;;4197341;28;20211;-74
2022/05/17 04:32:27;;;;;;;2.58;1.58;;;22.90;99.90;;;;;;4196341;28;20227;-75
2022/05/17 04:34:31;;;;;;;2.80;1.60;;;22.90;99.90;;;;;;4196801;28;20280;-74
2022/05/17 04:36:33;;;;;;;2.92;1.70;;;22.90;99.90;;;;;;4196196;28;20227;-74
2022/05/17 04:38:38;;;;;;;2.60;1.42;;;22.90;99.90;;;;;;4194210;28;20246;-74
2022/05/17 04:40:42;;;;;;;2.97;1.48;;;22.90;99.90;;;;;;4193560;28;20663;-74
2022/05/17 04:42:46;;;;;;;3.08;1.80;;;22.90;99.90;;;;;;4193533;28;20235;-74
2022/05/17 04:44:48;;;;;;;2.60;1.63;;;22.90;99.90;;;;;;4193642;28;20215;-75
2022/05/17 04:46:50;;;;;;;1.85;1.50;;;22.90;99.90;;;;;;4193985;28;20269;-74
2022/05/17 04:48:53;;;;;;;3.05;1.67;;;22.90;99.90;;;;;;4193182;28;20272;-74
2022/05/17 04:50:55;;;;;;;2.63;1.60;;;22.90;99.90;;;;;;4190522;28;20259;-74
2022/05/17 04:52:57;;;;;;;3.22;1.77;;;22.90;99.90;;;;;;4193768;28;20250;-75
2022/05/17 04:55:01;;;;;;;3.13;1.40;;;22.90;99.90;;;;;;4194394;28;20215;-74
2022/05/17 04:57:05;;;;;;;3.22;1.77;;;22.90;99.90;;;;;;4194249;28;20223;-74
2022/05/17 04:59:08;;;;;;;2.33;1.52;;;22.90;99.90;;;;;;4193294;28;20703;-74
2022/05/17 05:01:10;;;;;;;2.83;1.48;;;22.90;99.90;;;;;;4193259;28;20268;-74
2022/05/17 05:03:13;;;;;;;2.55;1.23;;;22.90;99.90;;;;;;4192472;28;20238;-74
2022/05/17 05:05:16;;;;;;;3.90;1.63;;;22.90;99.90;;;;;;4193338;28;20264;-74
2022/05/17 05:07:19;;;;;;;3.33;1.67;;;22.90;99.90;;;;;;4192974;28;20276;-74
2022/05/17 05:09:22;;;;;;;5.03;2.13;;;22.90;99.90;;;;;;4193262;28;20231;-74
2022/05/17 05:11:25;;;;;;;2.80;1.45;;;22.90;99.90;;;;;;4193290;28;20228;-74
2022/05/17 05:13:28;;;;;;;3.25;1.67;;;22.90;99.90;;;;;;4192546;28;20223;-75
2022/05/17 05:15:31;;;;;;;3.13;1.52;;;22.90;99.90;;;;;;4192852;28;20652;-75
2022/05/17 05:17:36;;;;;;;3.22;1.60;;;22.90;99.90;;;;;;4193198;28;20265;-74
2022/05/17 05:19:39;;;;;;;3.30;1.63;;;22.90;99.90;;;;;;4192355;28;20665;-74
2022/05/17 05:21:41;;;;;;;3.00;1.50;;;22.90;99.90;;;;;;4192330;28;20219;-74
2022/05/17 05:23:44;;;;;;;3.05;1.75;;;22.90;99.90;;;;;;4192097;28;20255;-75
2022/05/17 05:25:47;;;;;;;3.30;1.45;;;22.90;99.90;;;;;;4191965;28;20454;-74
2022/05/17 05:27:50;;;;;;;2.53;1.65;;;22.90;99.90;;;;;;4192639;28;20227;-74
2022/05/17 05:29:53;;;;;;;3.13;1.40;;;23.00;99.90;;;;;;4192964;28;20276;-74
2022/05/17 05:31:55;;;;;;;2.58;1.48;;;22.90;99.90;;;;;;4192636;28;20273;-74
2022/05/17 05:33:57;;;;;;;3.58;1.50;;;22.90;99.90;;;;;;4192345;28;20638;-74
2022/05/17 05:36:03;;;;;;;2.90;1.55;;;22.90;99.90;;;;;;4191999;28;20664;-74
2022/05/17 05:38:06;;;;;;;2.55;1.75;;;23.00;99.90;;;;;;4191014;28;20663;-75
2022/05/17 05:40:10;;;;;;;1.90;1.63;;;22.90;99.90;;;;;;4187250;28;20308;-74
2022/05/17 05:42:12;;;;;;;2.88;1.80;;;22.90;99.90;;;;;;4192785;28;20257;-74
2022/05/17 05:44:16;;;;;;;2.58;1.30;;;22.90;99.90;;;;;;4191814;28;20247;-74
2022/05/17 05:46:20;;;;;;;3.42;1.67;;;22.90;99.90;;;;;;4192765;28;21235;-74
2022/05/17 05:48:22;;;;;;;3.28;1.85;;;22.90;99.90;;;;;;4192323;28;20243;-74
2022/05/17 05:50:25;;;;;;;2.58;1.63;;;22.90;99.90;;;;;;4191859;28;20650;-74
2022/05/17 05:52:27;;;;;;;4.65;1.75;;;22.90;99.90;;;;;;4192880;28;20268;-74
2022/05/17 05:54:29;;;;;;;2.60;1.48;;;23.00;99.90;;;;;;4191955;28;20235;-75
2022/05/17 05:56:32;;;;;;;3.67;1.63;;;23.00;99.90;;;;;;4191878;28;20210;-74
2022/05/17 05:58:36;;;;;;;3.08;1.58;;;23.00;99.90;;;;;;4192529;28;20211;-75
2022/05/17 06:00:39;;;;;;;2.78;1.40;;;23.00;99.90;;;;;;4193276;28;20215;-76
2022/05/17 06:02:42;;;;;;;2.88;1.30;;;22.90;99.90;;;;;;4193389;28;20261;-76
2022/05/17 06:04:44;;;;;;;2.58;1.40;;;23.00;99.90;;;;;;4192052;28;20301;-76
2022/05/17 06:06:46;;;;;;;2.95;1.80;;;22.90;99.90;;;;;;4193484;28;20235;-76
2022/05/17 06:08:49;;;;;;;3.40;1.70;;;23.00;99.90;;;;;;4193897;28;20215;-76
2022/05/17 06:10:51;;;;;;;2.15;1.45;;;23.00;99.90;;;;;;4193076;28;20219;-76
2022/05/17 06:12:53;;;;;;;2.88;1.90;;;23.00;99.90;;;;;;4191800;28;20246;-76
2022/05/17 06:14:56;;;;;;;2.72;1.30;;;23.00;99.90;;;;;;4192534;28;20219;-76
2022/05/17 06:16:59;;;;;;;2.75;1.60;;;23.00;99.90;;;;;;4192943;28;20614;-76
2022/05/17 06:19:02;;;;;;;2.65;1.67;;;23.00;99.90;;;;;;4192460;28;20211;-76
2022/05/17 06:21:05;;;;;;;3.40;1.58;;;23.00;99.90;;;;;;4192986;28;20223;-76
2022/05/17 06:23:08;;;;;;;3.17;1.60;;;23.00;99.90;;;;;;4193038;28;20253;-76
2022/05/17 06:25:11;;;;;;;2.22;1.50;;;23.00;99.90;;;;;;4192444;28;20243;-76
2022/05/17 06:27:13;;;;;;;3.33;1.90;;;23.00;99.90;;;;;;4191979;28;20847;-76
2022/05/17 06:29:16;;;;;;;4.10;1.73;;;23.00;99.90;;;;;;4192802;28;20260;-76
2022/05/17 06:31:18;;;;;;;3.28;1.52;;;23.00;99.90;;;;;;4192553;28;20288;-76
2022/05/17 06:33:22;;;;;;;2.28;1.73;;;23.00;99.90;;;;;;4192353;28;20227;-76
2022/05/17 06:35:24;;;;;;;3.75;1.80;;;23.00;99.90;;;;;;4191619;28;20227;-76
2022/05/17 06:37:26;;;;;;;2.72;1.63;;;23.00;99.90;;;;;;4192422;28;20268;-76
2022/05/17 06:39:28;;;;;;;4.55;1.80;;;23.00;99.90;;;;;;4188583;28;20284;-76
2022/05/17 06:41:32;;;;;;;14.65;2.90;;;23.00;99.90;;;;;;4190715;28;20215;-76
2022/05/17 06:43:35;;;;;;;7.30;3.58;;;22.90;99.90;;;;;;4190447;28;20257;-76
2022/05/17 06:45:38;;;;;;;10.23;3.70;;;22.60;99.90;;;;;;4191752;28;20215;-76
2022/05/17 06:47:41;;;;;;;19.52;4.30;;;22.30;99.90;;;;;;4191093;28;21383;-76
2022/05/17 06:49:45;;;;;;;11.93;3.92;;;22.30;99.90;;;;;;4191653;28;20227;-76
2022/05/17 06:51:47;;;;;;;10.60;3.80;;;22.20;99.90;;;;;;4189694;28;20559;-74
2022/05/17 06:53:49;;;;;;;14.75;4.47;;;22.10;99.90;;;;;;4186395;28;20219;-74
2022/05/17 06:55:52;;;;;;;17.40;4.85;;;22.20;99.90;;;;;;4188490;28;20216;-74
2022/05/17 06:57:54;;;;;;;13.05;4.22;;;22.10;99.90;;;;;;4190771;28;20219;-75
2022/05/17 06:59:56;;;;;;;8.73;4.18;;;22.00;99.90;;;;;;4190057;28;20211;-73
2022/05/17 07:02:00;;;;;;;9.57;4.78;;;21.90;99.90;;;;;;4190026;28;20341;-76
2022/05/17 07:04:04;;;;;;;12.77;4.80;;;22.00;99.90;;;;;;4189004;28;20292;-73
2022/05/17 07:06:08;;;;;;;13.75;5.00;;;22.20;99.90;;;;;;4192517;28;20219;-74
2022/05/17 07:08:10;;;;;;;15.52;4.93;;;22.30;99.90;;;;;;4190181;28;20238;-75
2022/05/17 07:14:54;;;;;;;16.83;5.28;;;22.20;99.90;;;;;;4191013;28;20203;-75
2022/05/17 07:16:57;;;;;;;14.27;4.72;;;22.30;99.90;;;;;;4190105;28;20277;-74
2022/05/17 07:18:59;;;;;;;19.88;4.53;;;22.30;99.90;;;;;;4186633;28;20586;-76
2022/05/17 07:21:02;;;;;;;18.20;4.78;;;22.40;99.90;;;;;;4189121;28;20211;-75
2022/05/17 07:23:09;;;;;;;12.75;4.72;;;22.50;99.90;;;;;;4186712;28;20265;-76
2022/05/17 07:25:11;;;;;;;16.83;4.82;;;22.50;99.90;;;;;;4183859;28;20235;-77
2022/05/17 07:27:15;;;;;;;11.80;4.18;;;22.50;99.90;;;;;;4191058;28;20215;-76
2022/05/17 07:29:17;;;;;;;12.27;4.63;;;22.50;99.90;;;;;;4190855;28;20215;-75
2022/05/17 07:31:19;;;;;;;11.10;4.05;;;22.40;99.90;;;;;;4188280;28;20219;-80
2022/05/17 07:33:22;;;;;;;18.98;5.18;;;22.40;99.90;;;;;;4193610;28;20223;-77
2022/05/17 07:35:27;;;;;;;12.25;4.88;;;22.50;99.90;;;;;;4191949;28;20219;-76
2022/05/17 07:37:30;;;;;;;15.38;4.50;;;22.50;99.90;;;;;;4191382;28;20215;-77
2022/05/17 07:39:33;;;;;;;14.93;4.60;;;22.60;99.90;;;;;;4187077;28;20260;-76
2022/05/17 07:41:36;;;;;;;11.18;4.60;;;22.50;99.90;;;;;;4171387;28;20223;-77
2022/05/17 07:43:38;;;;;;;13.60;4.40;;;22.60;99.90;;;;;;4188217;28;20257;-76
2022/05/17 07:45:40;;;;;;;10.05;3.72;;;22.60;99.90;;;;;;4185584;28;20243;-76
2022/05/17 07:47:43;;;;;;;11.52;4.35;;;22.70;99.90;;;;;;4180502;28;20264;-77
2022/05/17 07:49:45;;;;;;;10.13;3.58;;;22.70;99.90;;;;;;4191063;28;20687;-75
2022/05/17 07:51:48;;;;;;;11.27;4.03;;;22.70;99.90;;;;;;4180399;28;20219;-74
2022/05/17 07:53:52;;;;;;;15.77;4.50;;;22.80;99.90;;;;;;4188524;28;20226;-75
2022/05/17 07:55:56;;;;;;;6.63;3.78;;;22.80;99.90;;;;;;4187769;28;20273;-74
2022/05/17 07:57:58;;;;;;;7.95;3.42;;;22.80;99.90;;;;;;4186425;28;20215;-74
2022/05/17 08:00:01;;;;;;;9.02;3.45;;;22.90;99.90;;;;;;4188646;28;20663;-76
2022/05/17 08:02:07;;;;;;;9.07;4.10;;;22.90;99.90;;;;;;4189557;28;20268;-76
2022/05/17 08:04:09;;;;;;;10.80;4.07;;;22.80;99.90;;;;;;4187449;28;20671;-76
2022/05/17 08:06:11;;;;;;;6.40;3.83;;;22.90;99.90;;;;;;4190262;28;20239;-77
2022/05/17 08:08:14;;;;;;;10.65;3.85;;;22.80;99.90;;;;;;4184007;28;20257;-75
2022/05/17 08:10:17;;;;;;;6.10;3.58;;;22.90;99.90;;;;;;4187731;28;20265;-74
2022/05/17 08:12:21;;;;;;;8.18;3.90;;;22.90;99.90;;;;;;4186203;28;20215;-76
2022/05/17 08:14:26;;;;;;;10.38;4.07;;;22.90;99.90;;;;;;4191348;28;20261;-78
2022/05/17 08:16:28;;;;;;;8.68;3.58;;;22.90;99.90;;;;;;4193095;28;20767;-77
2022/05/17 08:18:30;;;;;;;11.68;3.70;;;23.00;99.90;;;;;;4189495;28;20223;-77
2022/05/17 08:20:34;;;;;;;6.43;3.60;;;22.90;99.90;;;;;;4193330;28;20281;-79
2022/05/17 08:22:38;;;;;;;9.57;3.83;;;22.90;99.90;;;;;;4192330;28;20671;-77
2022/05/17 08:29:21;;;;;;;11.18;4.10;;;22.90;99.90;;;;;;4191920;28;20206;-76
2022/05/17 08:31:24;;;;;;;8.13;3.92;;;23.00;99.90;;;;;;4190587;28;20219;-72
2022/05/17 08:33:26;;;;;;;6.90;4.00;;;23.00;99.90;;;;;;4189747;28;20280;-73
2022/05/17 08:35:28;;;;;;;12.15;4.50;;;23.10;99.90;;;;;;4185758;28;20648;-74
2022/05/17 08:37:31;;;;;;;9.32;4.43;;;23.10;99.90;;;;;;4187711;28;21741;-72
2022/05/17 08:39:33;;;;;;;10.07;4.90;;;23.10;99.90;;;;;;4187758;28;20231;-73
2022/05/17 08:41:40;;;;;;;9.07;4.90;;;23.10;99.90;;;;;;4192174;28;20211;-73
2022/05/17 08:43:49;;;;;;;10.35;4.25;;;23.10;99.90;;;;;;4189970;28;20261;-72
2022/05/17 08:46:11;;;;;;;9.73;4.40;;;23.20;99.90;;;;;;4189048;28;20243;-72
2022/05/17 08:48:17;;;;;;;18.23;5.88;;;23.10;99.90;;;;;;4191351;28;20207;-72
2022/05/17 08:50:23;;;;;;;12.07;4.43;;;23.20;99.90;;;;;;4188313;28;20492;-72
2022/05/17 08:52:28;;;;;;;9.48;4.35;;;23.30;99.90;;;;;;4190262;28;20261;-73
2022/05/17 08:54:35;;;;;;;11.73;4.13;;;23.20;99.90;;;;;;4185824;28;20268;-73
2022/05/17 08:56:44;;;;;;;8.68;4.35;;;23.20;99.90;;;;;;4191039;28;20215;-72
2022/05/17 08:58:50;;;;;;;8.18;4.40;;;23.30;99.90;;;;;;4188192;28;20256;-73
2022/05/17 09:01:00;;;;;;;9.00;3.88;;;23.30;99.90;;;;;;4186169;28;20624;-73
2022/05/17 09:03:11;;;;;;;8.00;4.20;;;23.30;99.90;;;;;;4188661;28;20222;-72
2022/05/17 09:05:29;;;;;;;9.55;3.80;;;23.40;99.90;;;;;;4191870;28;20235;-74
2022/05/17 09:07:44;;;;;;;10.73;4.45;;;23.50;99.90;;;;;;4192642;28;20239;-74
2022/05/17 09:10:02;;;;;;;10.27;4.35;;;23.60;99.90;;;;;;4190608;28;20793;-74
2022/05/17 09:12:14;;;;;;;9.73;4.10;;;23.60;99.90;;;;;;4191707;28;20352;-75
2022/05/17 09:14:19;;;;;;;10.80;3.70;;;23.70;99.90;;;;;;4187144;28;20222;-74
2022/05/17 09:16:24;;;;;;;10.18;3.92;;;23.80;99.90;;;;;;4193464;28;20613;-75
2022/05/17 09:18:31;;;;;;;8.85;3.88;;;23.80;99.90;;;;;;4193382;28;20359;-74
2022/05/17 09:20:35;;;;;;;11.75;4.22;;;23.90;99.90;;;;;;4187826;28;20276;-75
2022/05/17 09:22:38;;;;;;;9.52;3.95;;;23.80;99.90;;;;;;4191587;28;20215;-74
2022/05/17 09:24:43;;;;;;;11.70;3.75;;;23.70;99.90;;;;;;4186847;28;20671;-75
2022/05/17 09:26:50;;;;;;;10.10;4.40;;;23.80;99.90;;;;;;4190587;28;20276;-75
2022/05/17 09:28:56;;;;;;;7.05;3.58;;;23.90;99.90;;;;;;4190739;28;20210;-75
2022/05/17 09:31:08;;;;;;;16.45;4.57;;;23.90;99.90;;;;;;4191060;28;20234;-74
2022/05/17 09:33:14;;;;;;;73.10;10.85;;;23.90;99.90;;;;;;4190442;28;20231;-74
2022/05/17 09:35:21;;;;;;;9.40;3.92;;;23.90;99.90;;;;;;4184721;28;20250;-76
2022/05/17 09:37:23;;;;;;;7.38;3.75;;;23.90;99.90;;;;;;4187705;28;20223;-76
2022/05/17 09:39:27;;;;;;;11.02;3.80;;;23.90;99.90;;;;;;4191073;28;20215;-77
2022/05/17 09:41:34;;;;;;;8.52;3.78;;;23.90;99.90;;;;;;4185740;28;20223;-77
2022/05/17 09:43:46;;;;;;;11.43;3.92;;;24.00;99.90;;;;;;4189628;28;20253;-77
2022/05/17 09:45:55;;;;;;;6.30;3.60;;;24.00;99.90;;;;;;4191326;28;20238;-77
2022/05/17 09:48:00;;;;;;;7.78;3.90;;;24.10;99.90;;;;;;4190616;28;20221;-80
2022/05/17 09:52:34;;;;;;;8.38;3.95;;;24.10;99.90;;;;;;4189496;28;20211;-75
2022/05/17 09:54:39;;;;;;;5.70;3.92;;;23.90;99.90;;;;;;4190892;28;20218;-75
2022/05/17 09:56:41;;;;;;;11.05;4.07;;;24.00;99.90;;;;;;4189263;28;20323;-74
2022/05/17 09:58:46;;;;;;;9.65;3.55;;;24.00;99.90;;;;;;4191281;28;20219;-74
2022/05/17 10:00:51;;;;;;;8.60;3.47;;;24.00;99.90;;;;;;4188412;28;20215;-76
2022/05/17 10:03:00;;;;;;;7.65;3.58;;;24.10;99.90;;;;;;4189621;28;20249;-74
2022/05/17 10:05:16;;;;;;;5.97;4.10;;;24.00;99.90;;;;;;4190282;28;20214;-73
2022/05/17 10:07:21;;;;;;;9.30;4.18;;;23.90;99.90;;;;;;4185244;28;20231;-73
2022/05/17 10:09:30;;;;;;;14.27;4.05;;;23.90;99.90;;;;;;4188550;28;20269;-74
2022/05/17 10:11:45;;;;;;;9.63;4.68;;;23.90;99.90;;;;;;4187112;28;20224;-74
2022/05/17 10:14:14;;;;;;;9.07;5.03;;;23.90;99.90;;;;;;4189227;28;20269;-74
2022/05/17 10:16:23;;;;;;;11.27;5.28;;;24.00;99.90;;;;;;4187575;28;20223;-74
2022/05/17 10:18:36;;;;;;;12.52;5.38;;;24.10;99.90;;;;;;4184702;28;20280;-74
2022/05/17 10:20:44;;;;;;;9.23;5.22;;;24.10;99.90;;;;;;4189117;28;20215;-74
2022/05/17 10:23:01;;;;;;;10.82;4.70;;;24.10;99.90;;;;;;4187994;28;20284;-74
2022/05/17 10:25:11;;;;;;;9.00;5.38;;;24.20;99.90;;;;;;4190266;28;20219;-75
2022/05/17 10:27:19;;;;;;;8.27;5.18;;;24.20;99.90;;;;;;4190233;28;20238;-76
2022/05/17 10:29:27;;;;;;;11.32;4.90;;;24.30;99.90;;;;;;4189276;28;20275;-76
2022/05/17 10:31:35;;;;;;;6.90;4.78;;;24.30;99.90;;;;;;4189527;28;20226;-75
2022/05/17 10:33:47;;;;;;;8.65;4.95;;;24.30;99.90;;;;;;4188442;28;20256;-76
2022/05/17 10:35:55;;;;;;;9.18;4.65;;;24.30;99.90;;;;;;4190751;28;20221;-75
2022/05/17 10:38:02;;;;;;;7.72;4.70;;;24.30;99.90;;;;;;4191153;28;20222;-74
2022/05/17 10:40:12;;;;;;;6.40;4.45;;;24.40;99.90;;;;;;4181128;28;20376;-75
2022/05/17 10:42:15;;;;;;;8.73;4.70;;;24.40;99.90;;;;;;4187374;28;20215;-75
2022/05/17 10:44:20;;;;;;;7.53;4.40;;;24.30;99.90;;;;;;4186930;28;20672;-75
2022/05/17 10:46:29;;;;;;;8.27;4.50;;;24.40;99.90;;;;;;4191572;28;20280;-74
2022/05/17 10:48:49;;;;;;;14.88;5.82;;;24.50;99.90;;;;;;4189108;28;20218;-74
2022/05/17 10:50:58;;;;;;;9.80;5.60;;;24.50;99.90;;;;;;4183999;28;20348;-74
2022/05/17 10:53:14;;;;;;;8.35;4.88;;;24.50;99.90;;;;;;4187316;28;20218;-74
2022/05/17 10:55:23;;;;;;;7.63;5.03;;;24.50;99.90;;;;;;4189785;28;20265;-74
2022/05/17 10:57:34;;;;;;;8.05;5.00;;;24.50;99.90;;;;;;4187582;28;20202;-75
2022/05/17 10:59:44;;;;;;;10.82;5.05;;;24.50;99.90;;;;;;4189256;28;20269;-75
2022/05/17 11:01:59;;;;;;;9.18;5.30;;;24.50;99.90;;;;;;4184999;28;20268;-74